createdAt,value
2018-03-17T00:00:14.874Z,6.60
2018-03-17T00:02:41.898Z,6.60
2018-03-17T00:05:08.651Z,6.60
2018-03-17T00:07:35.679Z,6.60
2018-03-17T00:10:01.862Z,6.60
2018-03-17T00:12:28.075Z,6.60
2018-03-17T00:14:54.303Z,6.60
2018-03-17T00:17:20.515Z,6.70
2018-03-17T00:19:47.523Z,6.70
2018-03-17T00:22:14.479Z,6.70
2018-03-17T00:24:40.766Z,6.70
2018-03-17T00:27:07.692Z,6.60
2018-03-17T00:29:34.204Z,6.70
2018-03-17T00:32:00.386Z,6.60
2018-03-17T00:34:26.599Z,6.60
2018-03-17T00:36:53.216Z,6.60
2018-03-17T00:39:19.467Z,6.60
2018-03-17T00:41:46.298Z,6.60
2018-03-17T00:44:13.866Z,6.60
2018-03-17T00:46:40.074Z,6.50
2018-03-17T00:49:07.240Z,6.50
2018-03-17T00:51:34.710Z,6.50
2018-03-17T00:54:01.692Z,6.50
2018-03-17T00:56:27.948Z,6.50
2018-03-17T00:58:55.393Z,6.60
2018-03-17T01:01:22.936Z,6.50
2018-03-17T01:03:49.142Z,6.50
2018-03-17T01:06:16.070Z,6.50
2018-03-17T01:08:42.295Z,6.40
2018-03-17T01:11:08.502Z,6.40
2018-03-17T01:13:34.745Z,6.40
2018-03-17T01:16:01.615Z,6.50
2018-03-17T01:18:28.406Z,6.50
2018-03-17T01:20:55.871Z,6.40
2018-03-17T01:23:22.424Z,6.30
2018-03-17T01:25:50.157Z,6.40
2018-03-17T01:28:17.648Z,6.40
2018-03-17T01:30:44.442Z,6.30
2018-03-17T01:33:11.721Z,6.30
2018-03-17T01:35:39.350Z,6.40
2018-03-17T01:38:05.566Z,6.30
2018-03-17T01:40:31.795Z,6.40
2018-03-17T01:42:58.379Z,6.40
2018-03-17T01:45:26.007Z,6.40
2018-03-17T01:47:53.063Z,6.50
2018-03-17T01:50:20.637Z,6.50
2018-03-17T01:52:46.867Z,6.40
2018-03-17T01:55:13.059Z,6.40
2018-03-17T01:57:40.061Z,6.40
2018-03-17T02:00:07.476Z,6.10
2018-03-17T02:02:35.318Z,6.10
2018-03-17T02:05:02.316Z,6.10
2018-03-17T02:07:28.518Z,6.10
2018-03-17T02:09:55.487Z,6.20
2018-03-17T02:12:21.697Z,6.10
2018-03-17T02:14:48.632Z,6.10
2018-03-17T02:17:16.233Z,6.10
2018-03-17T02:19:42.831Z,6.10
2018-03-17T02:22:11.961Z,6.20
2018-03-17T02:24:39.166Z,6.10
2018-03-17T02:27:06.450Z,6.10
2018-03-17T02:29:33.354Z,6.10
2018-03-17T02:32:00.105Z,6.10
2018-03-17T02:34:27.116Z,6.00
2018-03-17T02:36:53.826Z,6.00
2018-03-17T02:39:20.399Z,6.10
2018-03-17T02:41:46.602Z,6.10
2018-03-17T02:57:14.363Z,6.10
2018-03-17T02:59:40.585Z,5.90
2018-03-17T03:02:06.839Z,5.80
2018-03-17T03:04:33.736Z,5.80
2018-03-17T03:07:00.772Z,5.90
2018-03-17T03:09:27.648Z,5.90
2018-03-17T03:11:54.419Z,6.00
2018-03-17T03:14:20.990Z,6.10
2018-03-17T03:16:47.245Z,6.10
2018-03-17T03:19:14.526Z,6.10
2018-03-17T03:21:41.600Z,6.10
2018-03-17T03:24:08.092Z,6.30
2018-03-17T03:26:35.115Z,6.30
2018-03-17T03:29:02.011Z,6.30
2018-03-17T03:31:28.778Z,6.30
2018-03-17T03:33:56.343Z,6.30
2018-03-17T03:36:23.063Z,6.30
2018-03-17T03:38:50.583Z,6.20
2018-03-17T03:41:16.890Z,6.20
2018-03-17T03:43:43.738Z,6.20
2018-03-17T03:46:10.555Z,6.30
2018-03-17T03:48:36.741Z,6.30
2018-03-17T03:51:03.639Z,6.20
2018-03-17T03:53:29.819Z,6.20
2018-03-17T03:55:56.512Z,6.20
2018-03-17T03:58:23.967Z,6.10
2018-03-17T04:00:51.015Z,6.20
2018-03-17T04:03:17.394Z,6.20
2018-03-17T04:05:44.242Z,6.30
2018-03-17T04:08:11.231Z,6.30
2018-03-17T04:10:37.975Z,6.30
2018-03-17T04:13:04.894Z,6.30
2018-03-17T04:15:31.694Z,6.20
2018-03-17T04:17:58.242Z,6.30
2018-03-17T04:20:24.998Z,6.30
2018-03-17T04:22:53.013Z,6.40
2018-03-17T04:25:19.213Z,6.40
2018-03-17T04:27:45.693Z,6.40
2018-03-17T04:30:12.277Z,6.40
2018-03-17T04:32:39.185Z,6.40
2018-03-17T04:35:05.610Z,6.40
2018-03-17T04:37:32.264Z,6.40
2018-03-17T04:39:58.473Z,6.40
2018-03-17T04:42:24.977Z,6.40
2018-03-17T04:44:51.986Z,6.40
2018-03-17T04:47:19.673Z,6.30
2018-03-17T04:49:46.692Z,6.30
2018-03-17T04:52:13.629Z,6.30
2018-03-17T04:54:40.573Z,6.30
2018-03-17T04:57:07.519Z,6.30
2018-03-17T04:59:35.081Z,6.20
2018-03-17T05:02:02.171Z,6.10
2018-03-17T05:04:28.576Z,6.10
2018-03-17T05:06:55.060Z,6.00
2018-03-17T05:09:21.506Z,5.90
2018-03-17T05:11:49.118Z,6.00
2018-03-17T05:14:16.113Z,6.00
2018-03-17T05:16:42.604Z,6.00
2018-03-17T05:19:08.802Z,6.00
2018-03-17T05:21:36.184Z,6.00
2018-03-17T05:24:04.018Z,6.10
2018-03-17T05:26:31.932Z,6.00
2018-03-17T05:28:58.130Z,6.00
2018-03-17T05:31:24.991Z,5.90
2018-03-17T05:33:52.787Z,5.90
2018-03-17T05:36:19.208Z,6.00
2018-03-17T05:38:45.507Z,6.00
2018-03-17T05:41:11.999Z,6.00
2018-03-17T05:43:39.650Z,6.10
2018-03-17T05:46:06.330Z,6.10
2018-03-17T05:48:33.394Z,6.10
2018-03-17T05:50:59.587Z,6.10
2018-03-17T05:53:26.643Z,6.10
2018-03-17T05:55:54.212Z,6.20
2018-03-17T05:58:20.459Z,6.10
2018-03-17T06:00:47.086Z,6.20
2018-03-17T06:03:14.638Z,6.20
2018-03-17T06:05:40.868Z,6.20
2018-03-17T06:08:07.167Z,6.30
2018-03-17T06:10:33.368Z,6.30
2018-03-17T06:12:59.556Z,6.30
2018-03-17T06:15:26.277Z,6.40
2018-03-17T06:17:53.849Z,6.40
2018-03-17T06:20:20.856Z,6.50
2018-03-17T06:22:47.070Z,6.50
2018-03-17T06:25:13.357Z,6.60
2018-03-17T06:27:39.942Z,6.60
2018-03-17T06:30:07.043Z,6.80
2018-03-17T06:32:33.885Z,6.80
2018-03-17T06:35:00.966Z,6.80
2018-03-17T06:37:27.196Z,6.90
2018-03-17T06:39:53.468Z,7.00
2018-03-17T06:42:20.441Z,7.20
2018-03-17T06:44:47.123Z,7.20
2018-03-17T06:47:14.650Z,7.40
2018-03-17T06:49:41.707Z,7.40
2018-03-17T06:52:07.955Z,7.50
2018-03-17T06:54:34.655Z,7.50
2018-03-17T06:57:01.309Z,7.60
2018-03-17T06:59:27.650Z,7.70
2018-03-17T07:01:53.920Z,7.70
2018-03-17T07:04:20.140Z,7.70
2018-03-17T07:06:47.139Z,7.70
2018-03-17T07:09:13.347Z,7.70
2018-03-17T07:11:39.592Z,7.80
2018-03-17T07:14:05.821Z,8.00
2018-03-17T07:16:32.086Z,8.10
2018-03-17T07:18:58.523Z,8.20
2018-03-17T07:21:24.929Z,8.30
2018-03-17T07:23:51.806Z,8.30
2018-03-17T07:26:18.867Z,8.20
2018-03-17T07:28:45.182Z,8.20
2018-03-17T07:31:12.214Z,8.30
2018-03-17T07:33:38.421Z,8.30
2018-03-17T07:36:05.296Z,8.30
2018-03-17T07:38:32.810Z,8.50
2018-03-17T07:40:59.917Z,8.70
2018-03-17T07:43:26.882Z,8.60
2018-03-17T07:45:54.603Z,8.60
2018-03-17T07:48:22.358Z,8.80
2018-03-17T07:50:49.393Z,8.80
2018-03-17T07:53:16.364Z,8.80
2018-03-17T07:55:43.416Z,8.80
2018-03-17T07:58:10.890Z,8.90
2018-03-17T08:00:37.184Z,8.90
2018-03-17T08:03:04.051Z,8.90
2018-03-17T08:05:30.988Z,8.70
2018-03-17T08:07:58.444Z,8.50
2018-03-17T08:10:25.557Z,8.50
2018-03-17T08:12:52.476Z,8.50
2018-03-17T08:15:19.342Z,8.50
2018-03-17T08:17:45.842Z,8.50
2018-03-17T08:20:12.139Z,8.50
2018-03-17T08:22:39.168Z,8.60
2018-03-17T08:25:06.558Z,8.40
2018-03-17T08:27:34.622Z,8.30
2018-03-17T08:30:00.831Z,8.30
2018-03-17T08:32:48.875Z,8.20
2018-03-17T08:35:16.251Z,8.40
2018-03-17T08:37:43.499Z,8.40
2018-03-17T08:40:12.176Z,8.40
2018-03-17T08:42:38.928Z,8.40
2018-03-17T08:45:06.322Z,8.20
2018-03-17T08:47:44.921Z,8.10
2018-03-17T08:53:07.757Z,8.00
2018-03-17T08:55:34.388Z,8.00
2018-03-17T08:58:01.525Z,7.90
2018-03-17T09:00:28.638Z,7.90
2018-03-17T09:02:54.945Z,7.80
2018-03-17T09:05:21.321Z,7.80
2018-03-17T09:07:49.115Z,7.60
2018-03-17T09:10:16.717Z,7.60
2018-03-17T09:12:43.384Z,7.50
2018-03-17T09:15:09.642Z,7.50
2018-03-17T09:17:37.026Z,7.60
2018-03-17T09:20:05.385Z,7.60
2018-03-17T09:22:31.782Z,7.60
2018-03-17T09:24:58.682Z,7.60
2018-03-17T09:27:25.081Z,7.70
2018-03-17T09:29:52.678Z,7.90
2018-03-17T09:32:19.338Z,7.90
2018-03-17T09:34:46.266Z,8.00
2018-03-17T09:37:12.558Z,8.10
2018-03-17T09:39:39.113Z,8.30
2018-03-17T09:42:06.780Z,8.40
2018-03-17T09:44:33.245Z,8.50
2018-03-17T09:47:01.074Z,8.80
2018-03-17T09:49:27.409Z,8.80
2018-03-17T09:51:54.671Z,8.80
2018-03-17T09:54:21.703Z,8.90
2018-03-17T09:56:48.136Z,8.90
2018-03-17T09:59:15.122Z,8.90
2018-03-17T10:01:42.402Z,8.90
2018-03-17T10:04:09.589Z,8.90
2018-03-17T10:06:36.732Z,8.80
2018-03-17T10:09:03.342Z,8.80
2018-03-17T10:11:30.483Z,9.00
2018-03-17T10:13:57.213Z,9.00
2018-03-17T10:16:23.593Z,9.10
2018-03-17T10:18:50.134Z,9.20
2018-03-17T10:21:16.522Z,9.30
2018-03-17T10:23:44.240Z,9.40
2018-03-17T10:26:11.083Z,9.40
2018-03-17T10:28:38.748Z,9.50
2018-03-17T10:31:05.621Z,9.40
2018-03-17T10:33:32.481Z,9.40
2018-03-17T10:35:58.975Z,9.60
2018-03-17T10:38:25.923Z,9.50
2018-03-17T10:40:52.801Z,9.70
2018-03-17T10:43:19.893Z,9.90
2018-03-17T10:45:46.268Z,9.90
2018-03-17T10:48:14.278Z,10.00
2018-03-17T10:50:42.184Z,9.90
2018-03-17T10:53:09.226Z,10.10
2018-03-17T10:55:42.598Z,10.10
2018-03-17T10:58:09.179Z,10.30
2018-03-17T11:00:44.384Z,10.40
2018-03-17T11:12:56.435Z,10.40
2018-03-17T11:15:22.809Z,11.00
2018-03-17T11:17:49.983Z,11.10
2018-03-17T11:20:17.525Z,11.00
2018-03-17T11:22:44.563Z,10.90
2018-03-17T11:25:10.865Z,11.00
2018-03-17T11:27:37.365Z,11.00
2018-03-17T11:30:03.937Z,10.80
2018-03-17T11:32:30.694Z,10.80
2018-03-17T11:34:58.002Z,10.80
2018-03-17T11:37:24.685Z,10.70
2018-03-17T11:39:50.981Z,10.60
2018-03-17T11:42:17.311Z,10.40
2018-03-17T11:44:43.629Z,10.50
2018-03-17T11:47:09.915Z,10.70
2018-03-17T11:49:36.393Z,10.70
2018-03-17T11:52:02.781Z,10.70
2018-03-17T11:54:29.088Z,10.90
2018-03-17T11:56:55.993Z,10.80
2018-03-17T11:59:22.179Z,10.90
2018-03-17T12:01:49.372Z,10.60
2018-03-17T12:04:15.614Z,10.50
2018-03-17T12:06:42.502Z,10.50
2018-03-17T12:09:08.704Z,10.60
2018-03-17T12:11:34.880Z,10.60
2018-03-17T12:14:01.831Z,10.60
2018-03-17T12:16:29.295Z,10.40
2018-03-17T12:18:55.800Z,10.40
2018-03-17T12:21:23.832Z,10.10
2018-03-17T12:23:50.546Z,10.10
2018-03-17T12:26:17.731Z,9.90
2018-03-17T12:28:45.420Z,9.70
2018-03-17T12:31:12.949Z,9.50
2018-03-17T12:33:39.166Z,9.50
2018-03-17T12:36:05.940Z,9.50
2018-03-17T12:38:32.162Z,9.20
2018-03-17T12:40:58.479Z,9.00
2018-03-17T12:43:25.235Z,8.90
2018-03-17T12:45:51.975Z,9.00
2018-03-17T12:48:18.187Z,9.10
2018-03-17T12:50:44.395Z,9.10
2018-03-17T12:53:10.916Z,8.80
2018-03-17T12:55:37.322Z,8.70
2018-03-17T12:58:04.268Z,8.50
2018-03-17T13:00:32.205Z,8.50
2018-03-17T13:02:58.793Z,8.50
2018-03-17T13:05:26.463Z,8.50
2018-03-17T13:07:53.281Z,8.50
2018-03-17T13:10:20.814Z,8.50
2018-03-17T13:12:48.195Z,8.50
2018-03-17T13:15:15.517Z,8.40
2018-03-17T13:17:41.791Z,8.40
2018-03-17T13:20:09.017Z,8.30
2018-03-17T13:22:50.031Z,8.00
2018-03-17T13:25:16.388Z,8.00
2018-03-17T13:31:01.663Z,7.80
2018-03-17T13:33:28.252Z,7.80
2018-03-17T13:36:07.600Z,7.60
2018-03-17T13:38:34.438Z,7.60
2018-03-17T13:41:01.960Z,7.30
2018-03-17T13:43:30.137Z,7.40
2018-03-17T13:45:56.399Z,7.40
2018-03-17T13:48:23.520Z,7.40
2018-03-17T13:50:51.146Z,7.40
2018-03-17T13:53:18.375Z,7.30
2018-03-17T13:55:45.576Z,7.20
2018-03-17T13:58:12.634Z,7.20
2018-03-17T14:00:39.676Z,7.20
2018-03-17T14:03:07.438Z,7.00
2018-03-17T14:05:34.660Z,7.00
2018-03-17T14:08:02.290Z,6.70
2018-03-17T14:10:29.534Z,6.70
2018-03-17T14:12:55.805Z,6.70
2018-03-17T14:15:22.541Z,6.70
2018-03-17T14:17:50.308Z,6.70
2018-03-17T14:20:17.526Z,6.80
2018-03-17T14:22:43.722Z,6.70
2018-03-17T14:25:09.950Z,6.70
2018-03-17T14:27:37.853Z,7.10
2018-03-17T14:30:04.115Z,7.00
2018-03-17T14:32:30.987Z,7.20
2018-03-17T14:34:58.929Z,7.40
2018-03-17T14:37:25.672Z,7.40
2018-03-17T14:39:52.420Z,7.40
2018-03-17T14:42:19.172Z,7.40
2018-03-17T14:44:46.164Z,7.10
2018-03-17T14:47:12.500Z,7.00
2018-03-17T14:49:39.731Z,6.80
2018-03-17T14:52:07.394Z,6.90
2018-03-17T14:54:35.090Z,6.90
2018-03-17T14:57:01.324Z,6.80
2018-03-17T14:59:28.550Z,6.70
2018-03-17T15:01:55.316Z,6.70
2018-03-17T15:04:21.522Z,6.80
2018-03-17T15:06:47.731Z,6.60
2018-03-17T15:09:13.968Z,6.60
2018-03-17T15:11:40.159Z,6.60
2018-03-17T15:14:06.374Z,6.70
2018-03-17T15:16:32.602Z,6.70
2018-03-17T15:18:59.786Z,6.60
2018-03-17T15:21:26.734Z,6.50
2018-03-17T15:23:52.972Z,6.50
2018-03-17T15:26:19.868Z,6.30
2018-03-17T15:28:46.106Z,6.30
2018-03-17T15:31:12.307Z,6.30
2018-03-17T15:33:39.693Z,5.90
2018-03-17T15:36:05.888Z,5.80
2018-03-17T15:38:32.951Z,5.90
2018-03-17T15:40:59.814Z,5.80
2018-03-17T15:43:27.307Z,5.90
2018-03-17T15:45:53.537Z,5.90
2018-03-17T15:48:19.754Z,6.00
2018-03-17T15:50:46.067Z,6.00
2018-03-17T15:53:13.649Z,5.60
2018-03-17T15:55:42.143Z,5.50
2018-03-17T15:58:09.019Z,5.60
2018-03-17T16:00:35.254Z,5.60
2018-03-17T16:03:01.933Z,5.50
2018-03-17T16:05:29.486Z,5.30
2018-03-17T16:07:56.388Z,5.30
2018-03-17T16:10:24.077Z,5.30
2018-03-17T16:12:51.270Z,5.20
2018-03-17T16:15:18.486Z,5.20
2018-03-17T16:17:45.296Z,5.20
2018-03-17T16:20:13.063Z,5.30
2018-03-17T16:22:40.314Z,5.00
2018-03-17T16:25:06.602Z,5.00
2018-03-17T16:27:32.929Z,5.00
2018-03-17T16:30:01.086Z,4.90
2018-03-17T16:32:28.100Z,4.80
2018-03-17T16:34:54.828Z,4.70
2018-03-17T16:37:22.882Z,4.50
2018-03-17T16:39:49.238Z,4.50
2018-03-17T16:42:15.511Z,4.60
2018-03-17T16:44:41.783Z,4.60
2018-03-17T16:47:08.784Z,4.50
2018-03-17T16:49:35.110Z,4.40
2018-03-17T16:52:01.437Z,4.30
2018-03-17T16:54:28.148Z,4.30
2018-03-17T16:56:55.022Z,4.20
2018-03-17T16:59:21.478Z,4.20
2018-03-17T17:01:48.380Z,4.10
2018-03-17T17:04:15.389Z,3.90
2018-03-17T17:06:42.989Z,3.90
2018-03-17T17:09:09.881Z,3.80
2018-03-17T17:11:38.223Z,3.80
2018-03-17T17:14:04.511Z,3.70
2018-03-17T17:16:31.705Z,3.70
2018-03-17T17:18:58.039Z,3.50
2018-03-17T17:21:25.288Z,3.60
2018-03-17T17:23:52.556Z,3.70
2018-03-17T17:26:19.332Z,3.70
2018-03-17T17:28:46.889Z,3.60
2018-03-17T17:31:14.107Z,3.60
2018-03-17T17:33:40.842Z,3.80
2018-03-17T17:36:08.366Z,3.60
2018-03-17T17:38:36.358Z,3.60
2018-03-17T17:41:02.590Z,3.60
2018-03-17T17:43:30.529Z,3.70
2018-03-17T17:45:58.837Z,3.80
2018-03-17T17:48:26.374Z,3.80
2018-03-17T17:50:54.875Z,3.80
2018-03-17T17:53:22.131Z,3.80
2018-03-17T17:55:48.382Z,3.80
2018-03-17T17:58:15.219Z,3.80
2018-03-17T18:00:41.987Z,3.70
2018-03-17T18:03:08.172Z,3.60
2018-03-17T18:05:34.383Z,3.60
2018-03-17T18:08:00.666Z,3.60
2018-03-17T18:10:27.866Z,3.50
2018-03-17T18:12:54.938Z,3.50
2018-03-17T18:15:22.939Z,3.30
2018-03-17T18:17:49.728Z,3.30
2018-03-17T18:20:16.780Z,3.40
2018-03-17T18:22:43.004Z,3.50
2018-03-17T18:25:09.610Z,3.50
2018-03-17T18:27:37.089Z,3.50
2018-03-17T18:30:03.292Z,3.40
2018-03-17T18:32:30.480Z,3.30
2018-03-17T18:34:58.056Z,3.30
2018-03-17T18:37:26.118Z,3.20
2018-03-17T18:39:53.407Z,3.20
2018-03-17T18:42:20.155Z,3.10
2018-03-17T18:44:47.445Z,3.10
2018-03-17T18:47:14.214Z,3.10
2018-03-17T18:49:40.428Z,3.10
2018-03-17T18:52:06.866Z,3.00
2018-03-17T18:54:33.069Z,3.10
2018-03-17T18:56:59.263Z,2.90
2018-03-17T18:59:25.766Z,2.80
2018-03-17T19:01:53.397Z,2.70
2018-03-17T19:04:20.132Z,2.70
2018-03-17T19:06:48.019Z,2.60
2018-03-17T19:09:14.448Z,2.70
2018-03-17T19:11:41.354Z,2.60
2018-03-17T19:14:09.139Z,2.60
2018-03-17T19:16:36.400Z,2.60
2018-03-17T19:19:02.627Z,2.60
2018-03-17T19:21:29.219Z,2.40
2018-03-17T19:23:57.371Z,2.40
2018-03-17T19:26:24.383Z,2.40
2018-03-17T19:28:51.307Z,2.40
2018-03-17T19:31:18.900Z,2.50
2018-03-17T19:33:45.164Z,2.40
2018-03-17T19:36:12.173Z,2.40
2018-03-17T19:38:38.438Z,2.40
2018-03-17T19:41:05.209Z,2.40
2018-03-17T19:43:31.457Z,2.50
2018-03-17T19:45:58.695Z,2.50
2018-03-17T19:48:25.437Z,2.50
2018-03-17T19:50:52.495Z,2.40
2018-03-17T19:53:18.743Z,2.40
2018-03-17T19:55:45.042Z,2.50
2018-03-17T19:58:11.752Z,2.50
2018-03-17T20:00:38.883Z,2.60
2018-03-17T20:03:06.886Z,2.40
2018-03-17T20:05:34.229Z,2.30
2018-03-17T20:08:01.901Z,2.40
2018-03-17T20:10:29.737Z,2.40
2018-03-17T20:12:56.012Z,2.40
2018-03-17T20:15:23.013Z,2.40
2018-03-17T20:17:50.074Z,2.40
2018-03-17T20:20:17.049Z,2.40
2018-03-17T20:22:43.318Z,2.40
2018-03-17T20:25:10.041Z,2.30
2018-03-17T20:27:36.727Z,2.40
2018-03-17T20:30:04.347Z,2.30
2018-03-17T20:32:30.623Z,2.20
2018-03-17T20:34:57.600Z,2.30
2018-03-17T20:37:23.892Z,2.30
2018-03-17T20:39:50.745Z,2.30
2018-03-17T20:42:18.933Z,2.10
2018-03-17T20:44:45.774Z,2.10
2018-03-17T20:47:12.797Z,2.00
2018-03-17T20:49:40.807Z,2.00
2018-03-17T20:52:07.047Z,2.00
2018-03-17T20:54:33.794Z,2.10
2018-03-17T20:57:01.586Z,2.00
2018-03-17T20:59:27.821Z,2.00
2018-03-17T21:01:54.187Z,2.20
2018-03-17T21:04:21.243Z,2.20
2018-03-17T21:06:48.339Z,2.10
2018-03-17T21:09:14.572Z,2.10
2018-03-17T21:11:41.907Z,2.00
2018-03-17T21:14:10.052Z,2.10
2018-03-17T21:16:36.292Z,2.00
2018-03-17T21:19:03.530Z,2.00
2018-03-17T21:21:30.113Z,2.00
2018-03-17T21:23:57.582Z,1.80
2018-03-17T21:26:25.215Z,1.80
2018-03-17T21:28:51.582Z,1.80
2018-03-17T21:31:20.349Z,1.90
2018-03-17T21:33:47.265Z,1.90
2018-03-17T21:36:14.282Z,2.10
2018-03-17T21:38:40.595Z,2.10
2018-03-17T21:41:07.578Z,2.20
2018-03-17T21:43:34.551Z,2.20
2018-03-17T21:46:01.946Z,2.20
2018-03-17T21:48:29.844Z,2.20
2018-03-17T21:50:56.248Z,2.20
2018-03-17T21:53:24.926Z,2.10
2018-03-17T21:55:52.369Z,2.20
2018-03-17T21:58:19.350Z,2.00
2018-03-17T22:00:46.242Z,2.00
2018-03-17T22:03:13.292Z,2.00
2018-03-17T22:05:40.525Z,2.00
2018-03-17T22:08:07.545Z,2.10
2018-03-17T22:10:40.846Z,2.00
2018-03-17T22:13:07.980Z,2.00
2018-03-17T22:15:35.286Z,2.10
2018-03-17T22:18:02.356Z,2.10
2018-03-17T22:20:29.314Z,2.20
2018-03-17T22:22:55.856Z,2.20
2018-03-17T22:25:22.736Z,2.20
2018-03-17T22:27:50.759Z,2.20
2018-03-17T22:30:17.190Z,2.10
2018-03-17T22:32:44.590Z,2.00
2018-03-17T22:35:12.107Z,1.90
2018-03-17T22:37:38.317Z,1.90
2018-03-17T22:40:05.283Z,2.00
2018-03-17T22:42:31.528Z,1.90
2018-03-17T22:44:58.377Z,1.90
2018-03-17T22:47:25.142Z,1.90
2018-03-17T22:49:51.364Z,1.90
2018-03-17T22:52:18.148Z,1.90
2018-03-17T22:54:46.127Z,1.90
2018-03-17T22:57:12.580Z,1.90
2018-03-17T22:59:39.743Z,1.80
2018-03-17T23:02:06.570Z,1.90
2018-03-17T23:04:32.795Z,1.90
2018-03-17T23:06:59.022Z,1.80
2018-03-17T23:09:25.920Z,1.70
2018-03-17T23:11:52.796Z,1.60
2018-03-17T23:14:21.328Z,1.70
2018-03-17T23:16:47.584Z,1.70
2018-03-17T23:19:15.141Z,1.60
2018-03-17T23:21:42.488Z,1.70
2018-03-17T23:24:09.859Z,1.70
2018-03-17T23:26:36.798Z,1.60
2018-03-17T23:29:05.329Z,1.60
2018-03-17T23:31:31.588Z,1.60
2018-03-17T23:33:58.590Z,1.60
2018-03-17T23:36:24.831Z,1.50
2018-03-17T23:38:51.966Z,1.60
2018-03-17T23:41:19.667Z,1.60
2018-03-17T23:43:45.932Z,1.60
2018-03-17T23:46:13.758Z,1.50
2018-03-17T23:48:40.806Z,1.40
2018-03-17T23:51:07.064Z,1.40
2018-03-17T23:53:34.675Z,1.50
2018-03-17T23:56:01.033Z,1.50
2018-03-17T23:58:27.307Z,1.40
